Time;durP1;ratioP1;P1;durP2;ratioP2;P2;SDS_P1;SDS_P2;PMS_P1;PMS_P2;Temp;Humidity;BMP_temperature;BMP_pressure;BME280_temperature;BME280_humidity;BME280_pressure;Samples;Min_cycle;Max_cycle;Signal;HPM_P1;HPM_P2
2023/04/16 00:01:49;;;;;;;18.42;6.85;;;;;;;;;;5094801;28;20054;-84
2023/04/16 00:04:15;;;;;;;18.70;7.40;;;;;;;;;;5094213;28;20028;-84
2023/04/16 00:06:41;;;;;;;18.35;6.43;;;;;;;;;;5077039;28;20400;-84
2023/04/16 00:09:06;;;;;;;20.65;7.03;;;;;;;;;;5076760;28;20035;-84
2023/04/16 00:11:31;;;;;;;13.00;6.28;;;;;;;;;;5094895;28;20480;-84
2023/04/16 00:13:57;;;;;;;17.65;6.85;;;;;;;;;;5076957;28;20132;-84
2023/04/16 00:16:22;;;;;;;16.73;6.28;;;;;;;;;;5094914;28;20033;-84
2023/04/16 00:18:48;;;;;;;21.42;7.20;;;;;;;;;;5093692;28;20031;-84
2023/04/16 00:21:13;;;;;;;23.88;7.18;;;;;;;;;;5093567;28;20467;-85
2023/04/16 00:23:39;;;;;;;18.48;7.00;;;;;;;;;;5093244;28;20028;-84
2023/04/16 00:26:04;;;;;;;13.15;5.88;;;;;;;;;;5076887;28;20024;-84
2023/04/16 00:28:30;;;;;;;23.83;6.82;;;;;;;;;;5076756;28;20032;-84
2023/04/16 00:30:55;;;;;;;18.48;6.45;;;;;;;;;;5076644;28;20058;-84
2023/04/16 00:33:21;;;;;;;13.65;5.35;;;;;;;;;;5076686;28;20418;-84
2023/04/16 00:35:47;;;;;;;19.58;6.03;;;;;;;;;;5076637;28;20024;-82
2023/04/16 00:38:12;;;;;;;15.60;5.95;;;;;;;;;;5075389;28;20373;-84
2023/04/16 00:40:38;;;;;;;10.48;5.28;;;;;;;;;;5060037;28;20024;-84
2023/04/16 00:43:03;;;;;;;13.10;5.60;;;;;;;;;;5076360;28;20028;-83
2023/04/16 00:45:29;;;;;;;14.60;6.18;;;;;;;;;;5060569;28;20424;-84
2023/04/16 00:47:55;;;;;;;11.52;5.55;;;;;;;;;;5076212;28;20422;-84
2023/04/16 00:50:20;;;;;;;12.02;5.07;;;;;;;;;;5076324;28;20035;-83
2023/04/16 00:52:47;;;;;;;15.90;5.57;;;;;;;;;;5092774;28;20024;-83
2023/04/16 00:55:13;;;;;;;12.85;5.47;;;;;;;;;;5059346;28;20130;-84
2023/04/16 00:57:39;;;;;;;11.48;5.40;;;;;;;;;;5076255;28;20041;-84
2023/04/16 01:00:05;;;;;;;18.92;5.65;;;;;;;;;;5094034;28;20027;-83
2023/04/16 01:02:31;;;;;;;14.00;5.72;;;;;;;;;;5064127;28;20124;-83
2023/04/16 01:04:57;;;;;;;13.45;5.35;;;;;;;;;;5037130;28;20116;-83
2023/04/16 01:07:22;;;;;;;12.63;5.47;;;;;;;;;;5020147;28;20048;-83
2023/04/16 01:09:48;;;;;;;14.55;5.30;;;;;;;;;;5020030;28;20029;-84
2023/04/16 01:12:13;;;;;;;13.90;5.70;;;;;;;;;;5036802;28;20388;-83
2023/04/16 01:14:38;;;;;;;14.25;5.60;;;;;;;;;;5036164;28;20508;-84
2023/04/16 01:17:04;;;;;;;14.57;5.20;;;;;;;;;;5052791;28;20029;-83
2023/04/16 01:19:35;;;;;;;13.85;5.50;;;;;;;;;;5035760;28;20048;-85
2023/04/16 01:22:01;;;;;;;14.77;5.63;;;;;;;;;;5052308;28;20079;-84
2023/04/16 01:24:26;;;;;;;18.85;6.18;;;;;;;;;;5035992;28;20102;-84
2023/04/16 01:26:52;;;;;;;16.33;6.10;;;;;;;;;;5052415;28;20439;-84
2023/04/16 01:29:17;;;;;;;15.73;5.75;;;;;;;;;;5052314;28;20094;-84
2023/04/16 01:31:43;;;;;;;15.98;6.45;;;;;;;;;;5035865;28;20025;-84
2023/04/16 01:34:08;;;;;;;13.35;6.20;;;;;;;;;;5052311;28;20124;-84
2023/04/16 01:36:34;;;;;;;17.65;6.80;;;;;;;;;;5035685;28;20112;-85
2023/04/16 01:38:59;;;;;;;16.25;6.60;;;;;;;;;;5035772;28;20025;-84
2023/04/16 01:41:24;;;;;;;13.60;6.78;;;;;;;;;;5036221;28;20040;-84
2023/04/16 01:43:50;;;;;;;24.23;6.60;;;;;;;;;;5019483;28;20127;-83
2023/04/16 01:46:30;;;;;;;20.00;7.50;;;;;;;;;;5021859;28;20104;-83
2023/04/16 01:48:56;;;;;;;21.30;6.95;;;;;;;;;;5059995;28;20028;-83
2023/04/16 01:51:21;;;;;;;18.40;7.05;;;;;;;;;;5096518;28;20445;-83
2023/04/16 01:53:48;;;;;;;19.13;6.80;;;;;;;;;;5062446;28;20032;-83
2023/04/16 01:56:13;;;;;;;16.58;6.78;;;;;;;;;;5096010;28;20024;-82
2023/04/16 01:58:40;;;;;;;18.42;7.60;;;;;;;;;;5079150;28;20024;-83
2023/04/16 02:01:05;;;;;;;20.55;7.35;;;;;;;;;;5079429;28;20024;-83
2023/04/16 02:03:31;;;;;;;19.95;7.07;;;;;;;;;;5078616;28;20047;-82
2023/04/16 02:05:56;;;;;;;15.68;7.15;;;;;;;;;;5095949;28;20069;-82
2023/04/16 02:08:22;;;;;;;21.40;6.57;;;;;;;;;;5079113;28;20016;-82
2023/04/16 02:10:48;;;;;;;18.55;7.65;;;;;;;;;;5096055;28;20016;-82
2023/04/16 02:13:14;;;;;;;18.80;7.55;;;;;;;;;;5079213;28;20055;-82
2023/04/16 02:15:44;;;;;;;22.33;7.10;;;;;;;;;;5062420;28;20063;-82
2023/04/16 02:18:09;;;;;;;17.85;7.15;;;;;;;;;;5062291;28;20031;-83
2023/04/16 02:20:40;;;;;;;13.88;7.15;;;;;;;;;;5078946;28;20114;-83
2023/04/16 02:23:05;;;;;;;16.63;7.00;;;;;;;;;;5062814;28;20031;-82
2023/04/16 02:25:31;;;;;;;20.73;7.13;;;;;;;;;;5079072;28;20028;-83
2023/04/16 02:27:57;;;;;;;15.00;6.38;;;;;;;;;;5062489;28;20020;-82
2023/04/16 02:30:23;;;;;;;17.65;6.80;;;;;;;;;;5095887;28;20567;-83
2023/04/16 02:32:48;;;;;;;17.80;6.35;;;;;;;;;;5078402;28;20353;-83
2023/04/16 02:35:14;;;;;;;16.15;6.50;;;;;;;;;;5078758;28;20036;-83
2023/04/16 02:37:40;;;;;;;15.32;6.95;;;;;;;;;;5096760;28;20467;-85
2023/04/16 02:40:06;;;;;;;22.40;8.07;;;;;;;;;;5095289;28;20135;-84
2023/04/16 02:42:31;;;;;;;19.15;6.72;;;;;;;;;;5078709;28;20453;-84
2023/04/16 02:44:57;;;;;;;18.08;7.40;;;;;;;;;;5095398;28;20032;-84
2023/04/16 02:47:22;;;;;;;16.05;6.70;;;;;;;;;;5094718;28;20027;-83
2023/04/16 02:49:48;;;;;;;16.33;6.88;;;;;;;;;;5078457;28;20453;-84
2023/04/16 02:52:13;;;;;;;21.70;6.97;;;;;;;;;;5061723;28;20032;-84
2023/04/16 02:54:38;;;;;;;20.15;6.88;;;;;;;;;;5095316;28;20422;-84
2023/04/16 02:57:05;;;;;;;17.58;6.82;;;;;;;;;;5078685;28;20028;-84
2023/04/16 02:59:30;;;;;;;22.80;7.78;;;;;;;;;;5061572;28;20542;-84
2023/04/16 03:01:55;;;;;;;16.90;7.53;;;;;;;;;;5060169;28;20047;-82
2023/04/16 03:04:21;;;;;;;19.27;7.55;;;;;;;;;;5095018;28;20024;-82
2023/04/16 03:06:46;;;;;;;17.65;7.15;;;;;;;;;;5095488;28;20141;-83
2023/04/16 03:09:12;;;;;;;20.67;7.70;;;;;;;;;;5078645;28;20449;-84
2023/04/16 03:11:38;;;;;;;16.67;7.45;;;;;;;;;;5096263;28;20028;-84
2023/04/16 03:14:03;;;;;;;17.33;6.80;;;;;;;;;;5094530;28;20047;-84
2023/04/16 03:16:29;;;;;;;15.85;7.00;;;;;;;;;;5085585;28;20511;-83
2023/04/16 03:18:54;;;;;;;21.30;7.68;;;;;;;;;;5057554;28;20526;-84
2023/04/16 03:21:20;;;;;;;17.67;7.28;;;;;;;;;;5074336;28;20115;-84
2023/04/16 03:23:45;;;;;;;21.17;7.15;;;;;;;;;;5091356;28;20040;-84
2023/04/16 03:26:11;;;;;;;26.08;9.32;;;;;;;;;;5075442;28;20498;-84
2023/04/16 03:28:36;;;;;;;20.45;8.93;;;;;;;;;;5074432;28;20378;-84
2023/04/16 03:31:02;;;;;;;24.95;10.60;;;;;;;;;;5073879;28;20450;-84
2023/04/16 03:33:27;;;;;;;31.27;12.50;;;;;;;;;;5057198;28;20126;-83
2023/04/16 03:35:56;;;;;;;24.42;9.18;;;;;;;;;;5057272;28;20031;-83
2023/04/16 03:38:23;;;;;;;27.55;9.88;;;;;;;;;;5073875;28;20040;-83
2023/04/16 03:40:49;;;;;;;24.00;10.60;;;;;;;;;;5073964;28;20028;-82
2023/04/16 03:43:14;;;;;;;24.80;10.23;;;;;;;;;;5074083;28;20036;-83
2023/04/16 03:45:45;;;;;;;22.15;10.57;;;;;;;;;;5074014;28;20361;-83
2023/04/16 03:48:11;;;;;;;26.40;9.98;;;;;;;;;;5091927;28;20465;-84
2023/04/16 03:50:36;;;;;;;29.52;11.05;;;;;;;;;;5094110;28;20039;-83
2023/04/16 03:53:01;;;;;;;32.80;11.10;;;;;;;;;;5077338;28;20036;-84
2023/04/16 03:55:27;;;;;;;21.05;10.77;;;;;;;;;;5093862;28;20043;-84
2023/04/16 03:57:52;;;;;;;26.88;10.55;;;;;;;;;;5094270;28;20475;-84
2023/04/16 04:00:18;;;;;;;22.08;9.60;;;;;;;;;;5095101;28;20365;-84
2023/04/16 04:02:43;;;;;;;19.08;8.65;;;;;;;;;;5093721;28;20413;-84
2023/04/16 04:05:09;;;;;;;25.00;9.20;;;;;;;;;;5095418;28;20032;-84
2023/04/16 04:07:34;;;;;;;24.02;10.25;;;;;;;;;;5095051;28;20035;-84
2023/04/16 04:10:00;;;;;;;27.73;11.85;;;;;;;;;;5076666;28;20359;-84
2023/04/16 04:12:26;;;;;;;25.10;11.45;;;;;;;;;;5093581;28;20032;-84
2023/04/16 04:14:51;;;;;;;28.58;11.23;;;;;;;;;;5076408;28;20067;-84
2023/04/16 04:17:16;;;;;;;32.58;12.23;;;;;;;;;;5076638;28;20129;-83
2023/04/16 04:19:42;;;;;;;45.42;15.52;;;;;;;;;;5054081;28;20025;-84
2023/04/16 04:22:07;;;;;;;44.72;18.23;;;;;;;;;;5054245;28;20050;-84
2023/04/16 04:24:33;;;;;;;40.47;17.98;;;;;;;;;;5053379;28;20056;-84
2023/04/16 04:26:59;;;;;;;41.67;17.05;;;;;;;;;;5069745;28;20032;-83
2023/04/16 04:29:24;;;;;;;39.83;15.48;;;;;;;;;;5052971;28;20098;-83
2023/04/16 04:31:50;;;;;;;42.40;15.68;;;;;;;;;;5052963;28;20119;-83
2023/04/16 04:34:15;;;;;;;43.85;17.52;;;;;;;;;;5052961;28;20127;-83
2023/04/16 04:36:41;;;;;;;43.45;16.17;;;;;;;;;;5054174;28;20033;-83
2023/04/16 04:39:06;;;;;;;39.58;15.18;;;;;;;;;;5069535;28;20457;-83
2023/04/16 04:41:32;;;;;;;29.67;14.18;;;;;;;;;;5054242;28;20033;-84
2023/04/16 04:43:57;;;;;;;29.50;12.88;;;;;;;;;;5068984;28;20508;-84
2023/04/16 04:46:23;;;;;;;30.17;11.65;;;;;;;;;;5058763;28;20062;-84
2023/04/16 04:48:48;;;;;;;27.92;10.27;;;;;;;;;;5092943;28;20032;-83
2023/04/16 04:51:13;;;;;;;32.65;9.60;;;;;;;;;;5076082;28;20119;-84
2023/04/16 04:53:39;;;;;;;23.90;8.80;;;;;;;;;;5093356;28;20035;-83
2023/04/16 04:56:05;;;;;;;23.10;8.90;;;;;;;;;;5094049;28;20604;-83
2023/04/16 04:58:30;;;;;;;21.00;8.15;;;;;;;;;;5092718;28;20028;-85
2023/04/16 05:00:56;;;;;;;21.05;8.73;;;;;;;;;;5059704;28;20038;-85
2023/04/16 05:03:21;;;;;;;21.63;8.23;;;;;;;;;;5075919;28;20106;-82
2023/04/16 05:05:48;;;;;;;19.88;8.27;;;;;;;;;;5076162;28;20050;-82
2023/04/16 05:08:13;;;;;;;21.00;8.82;;;;;;;;;;5092935;28;20529;-83
2023/04/16 05:10:38;;;;;;;27.20;9.15;;;;;;;;;;5075880;28;20122;-83
2023/04/16 05:13:05;;;;;;;21.40;8.88;;;;;;;;;;5092443;28;20123;-83
2023/04/16 05:15:30;;;;;;;30.48;10.57;;;;;;;;;;5093870;28;20024;-85
2023/04/16 05:17:55;;;;;;;35.42;12.00;;;;;;;;;;5076155;28;20350;-85
2023/04/16 05:20:23;;;;;;;31.90;12.57;;;;;;;;;;5063299;28;20021;-85
2023/04/16 05:22:49;;;;;;;39.03;13.30;;;;;;;;;;5036152;28;20029;-84
2023/04/16 05:25:16;;;;;;;36.70;11.30;;;;;;;;;;5055978;28;20025;-84
2023/04/16 05:27:41;;;;;;;30.33;12.20;;;;;;;;;;5056547;28;20107;-84
2023/04/16 05:30:07;;;;;;;33.88;11.77;;;;;;;;;;5057598;28;20075;-84
2023/04/16 05:32:33;;;;;;;27.90;11.55;;;;;;;;;;5056537;28;20033;-85
2023/04/16 05:34:58;;;;;;;32.40;12.13;;;;;;;;;;5056304;28;20032;-85
2023/04/16 05:37:24;;;;;;;26.27;11.93;;;;;;;;;;5039687;28;20094;-83
2023/04/16 05:39:50;;;;;;;36.65;11.63;;;;;;;;;;5057459;28;20025;-83
2023/04/16 05:42:15;;;;;;;34.00;12.00;;;;;;;;;;5057396;28;20079;-83
2023/04/16 05:44:40;;;;;;;36.28;13.13;;;;;;;;;;5057402;28;20033;-83
2023/04/16 05:47:08;;;;;;;38.03;12.50;;;;;;;;;;5039497;28;20037;-83
2023/04/16 05:49:34;;;;;;;36.15;12.48;;;;;;;;;;5056083;28;20394;-83
2023/04/16 05:52:00;;;;;;;33.15;11.85;;;;;;;;;;5057195;28;20374;-82
2023/04/16 05:54:25;;;;;;;34.83;12.40;;;;;;;;;;5057272;28;20028;-85
2023/04/16 05:56:51;;;;;;;32.72;12.60;;;;;;;;;;5057085;28;20312;-85
2023/04/16 05:59:16;;;;;;;34.67;13.20;;;;;;;;;;5072703;28;20432;-84
2023/04/16 06:01:42;;;;;;;40.85;14.20;;;;;;;;;;5057059;28;20496;-83
2023/04/16 06:04:07;;;;;;;35.35;14.27;;;;;;;;;;5057754;28;20033;-84
2023/04/16 06:06:33;;;;;;;48.13;14.75;;;;;;;;;;5057176;28;20078;-84
2023/04/16 06:08:58;;;;;;;44.72;15.57;;;;;;;;;;5056084;28;20029;-84
2023/04/16 06:11:24;;;;;;;48.45;17.17;;;;;;;;;;5057011;28;20374;-84
2023/04/16 06:13:49;;;;;;;53.55;18.15;;;;;;;;;;5057197;28;20037;-84
2023/04/16 06:16:15;;;;;;;49.92;16.98;;;;;;;;;;5057107;28;20039;-85
2023/04/16 06:18:41;;;;;;;41.72;17.48;;;;;;;;;;5039099;28;20118;-85
2023/04/16 06:21:06;;;;;;;53.00;18.08;;;;;;;;;;5056940;28;20033;-84
2023/04/16 06:23:32;;;;;;;43.63;16.65;;;;;;;;;;5041310;28;20044;-85
2023/04/16 06:25:57;;;;;;;45.78;16.58;;;;;;;;;;5056743;28;20024;-85
2023/04/16 06:28:23;;;;;;;54.67;15.57;;;;;;;;;;5055703;28;20029;-84
2023/04/16 06:30:51;;;;;;;37.58;14.88;;;;;;;;;;5039689;28;20025;-84
2023/04/16 06:33:17;;;;;;;40.58;15.57;;;;;;;;;;5072040;28;20036;-84
2023/04/16 06:35:42;;;;;;;37.58;15.70;;;;;;;;;;5071663;28;20032;-82
2023/04/16 06:38:07;;;;;;;41.35;14.85;;;;;;;;;;5118393;22;20145;-81
2023/04/16 06:40:33;;;;;;;35.55;14.40;;;;;;;;;;5112845;28;20023;-84
2023/04/16 06:42:58;;;;;;;38.47;14.20;;;;;;;;;;5126135;28;20036;-84
2023/04/16 06:45:25;;;;;;;36.05;13.48;;;;;;;;;;5118889;28;20051;-84
2023/04/16 06:47:51;;;;;;;33.55;13.63;;;;;;;;;;5117879;28;20052;-84
2023/04/16 06:50:16;;;;;;;40.17;13.98;;;;;;;;;;5117787;28;20082;-84
2023/04/16 06:52:42;;;;;;;43.70;14.38;;;;;;;;;;5099863;28;20024;-85
2023/04/16 06:55:08;;;;;;;38.60;12.23;;;;;;;;;;5115977;28;20365;-84
2023/04/16 06:57:34;;;;;;;33.45;11.77;;;;;;;;;;5122777;28;20522;-84
2023/04/16 07:00:00;;;;;;;32.17;11.20;;;;;;;;;;5123559;28;20030;-84
2023/04/16 07:02:25;;;;;;;32.65;10.98;;;;;;;;;;5117454;28;20024;-84
2023/04/16 07:04:51;;;;;;;32.83;10.88;;;;;;;;;;5098556;28;20028;-85
2023/04/16 07:07:17;;;;;;;30.35;10.45;;;;;;;;;;5116979;28;20349;-84
2023/04/16 07:09:42;;;;;;;24.02;9.90;;;;;;;;;;5116723;28;20390;-84
2023/04/16 07:12:08;;;;;;;31.40;9.88;;;;;;;;;;5099024;28;20031;-85
2023/04/16 07:14:33;;;;;;;28.42;9.85;;;;;;;;;;5115448;28;20032;-85
2023/04/16 07:16:59;;;;;;;41.60;9.77;;;;;;;;;;5116988;28;20072;-85
2023/04/16 07:19:24;;;;;;;32.15;10.80;;;;;;;;;;5101202;28;20036;-84
2023/04/16 07:21:50;;;;;;;25.75;9.65;;;;;;;;;;5117012;28;20032;-85
2023/04/16 07:24:16;;;;;;;26.30;9.70;;;;;;;;;;5113740;28;20453;-85
2023/04/16 07:26:42;;;;;;;28.10;9.27;;;;;;;;;;5114922;28;20023;-84
2023/04/16 07:29:07;;;;;;;21.33;8.60;;;;;;;;;;5116621;28;20041;-85
2023/04/16 07:31:33;;;;;;;21.85;9.02;;;;;;;;;;5121759;28;20075;-84
2023/04/16 07:33:58;;;;;;;29.70;9.98;;;;;;;;;;5099313;28;20027;-84
2023/04/16 07:36:26;;;;;;;23.88;9.13;;;;;;;;;;5129682;28;20459;-84
2023/04/16 07:38:51;;;;;;;22.13;8.15;;;;;;;;;;5114458;28;20396;-84
2023/04/16 07:41:17;;;;;;;24.83;7.97;;;;;;;;;;5130293;28;20083;-84
2023/04/16 07:43:42;;;;;;;24.60;8.38;;;;;;;;;;5106529;28;20027;-85
2023/04/16 07:46:07;;;;;;;17.17;7.70;;;;;;;;;;5115717;28;20024;-84
2023/04/16 07:48:33;;;;;;;17.42;8.50;;;;;;;;;;5116133;27;20106;-84
2023/04/16 07:50:58;;;;;;;22.17;6.93;;;;;;;;;;5115284;28;20447;-85
2023/04/16 07:53:24;;;;;;;23.90;7.97;;;;;;;;;;5114725;28;20028;-85
2023/04/16 07:55:49;;;;;;;19.30;6.65;;;;;;;;;;5116485;28;20445;-85
2023/04/16 07:58:15;;;;;;;24.42;6.93;;;;;;;;;;5114924;28;20063;-84
2023/04/16 08:00:40;;;;;;;73.07;9.20;;;;;;;;;;5124304;28;20031;-84
2023/04/16 08:03:06;;;;;;;33.65;9.80;;;;;;;;;;5117180;28;20042;-84
2023/04/16 08:05:31;;;;;;;28.58;10.57;;;;;;;;;;5113938;28;20044;-84
2023/04/16 08:07:57;;;;;;;34.63;10.52;;;;;;;;;;5115822;28;20136;-85
2023/04/16 08:10:22;;;;;;;28.65;11.20;;;;;;;;;;5114423;28;20127;-84
2023/04/16 08:12:48;;;;;;;38.75;10.90;;;;;;;;;;5097494;28;20126;-84
2023/04/16 08:15:13;;;;;;;46.38;14.07;;;;;;;;;;5114671;28;20032;-85
2023/04/16 08:17:38;;;;;;;33.45;12.07;;;;;;;;;;5115922;28;20031;-85
2023/04/16 08:20:05;;;;;;;44.92;12.27;;;;;;;;;;5097613;28;20024;-85
2023/04/16 08:22:31;;;;;;;34.78;12.63;;;;;;;;;;5120244;28;20079;-85
2023/04/16 08:24:58;;;;;;;29.60;12.18;;;;;;;;;;5114279;28;20031;-85
2023/04/16 08:27:23;;;;;;;35.95;12.73;;;;;;;;;;5112975;28;20092;-86
2023/04/16 08:29:49;;;;;;;31.08;12.88;;;;;;;;;;5097312;28;20031;-85
2023/04/16 08:32:14;;;;;;;33.65;12.85;;;;;;;;;;5080557;28;20445;-85
2023/04/16 08:34:40;;;;;;;47.08;14.20;;;;;;;;;;5115621;27;20127;-84
2023/04/16 08:37:06;;;;;;;43.58;14.93;;;;;;;;;;5114601;28;20027;-85
2023/04/16 08:39:31;;;;;;;41.92;14.80;;;;;;;;;;5097124;28;20388;-86
2023/04/16 08:41:57;;;;;;;47.90;15.77;;;;;;;;;;5119660;27;20012;-85
2023/04/16 08:44:27;;;;;;;45.75;14.52;;;;;;;;;;5121191;28;20027;-84
2023/04/16 08:46:56;;;;;;;41.80;13.85;;;;;;;;;;5113974;28;20039;-84
2023/04/16 08:49:22;;;;;;;33.92;11.90;;;;;;;;;;5113821;28;20062;-87
2023/04/16 08:51:52;;;;;;;48.40;13.00;;;;;;;;;;5097309;28;20523;-84
2023/04/16 08:54:43;;;;;;;41.05;14.00;;;;;;;;;;5115290;28;20119;-86
2023/04/16 08:57:09;;;;;;;41.08;12.93;;;;;;;;;;5113420;28;20043;-85
2023/04/16 08:59:35;;;;;;;45.33;14.50;;;;;;;;;;5114309;28;20035;-85
2023/04/16 09:02:00;;;;;;;41.58;15.07;;;;;;;;;;5115089;28;20032;-85
2023/04/16 09:04:27;;;;;;;42.08;15.80;;;;;;;;;;5103143;28;20024;-87
2023/04/16 09:06:53;;;;;;;39.95;14.38;;;;;;;;;;5114201;28;20098;-86
2023/04/16 09:09:18;;;;;;;39.22;15.20;;;;;;;;;;5113603;28;20107;-86
2023/04/16 09:11:44;;;;;;;44.03;15.45;;;;;;;;;;5119008;28;20033;-86
2023/04/16 09:14:10;;;;;;;35.75;14.43;;;;;;;;;;5115115;28;20372;-86
2023/04/16 09:16:36;;;;;;;29.13;11.48;;;;;;;;;;5113753;28;20456;-86
2023/04/16 09:19:01;;;;;;;32.38;12.63;;;;;;;;;;5096479;28;20040;-86
2023/04/16 09:21:27;;;;;;;46.42;13.57;;;;;;;;;;5114502;28;20028;-84
2023/04/16 09:23:52;;;;;;;44.95;15.07;;;;;;;;;;5119349;28;20024;-83
2023/04/16 09:26:19;;;;;;;35.08;11.45;;;;;;;;;;5122521;28;20433;-86
2023/04/16 09:28:47;;;;;;;25.98;10.90;;;;;;;;;;5093534;28;20409;-86
2023/04/16 09:31:13;;;;;;;27.42;10.05;;;;;;;;;;5113452;28;20357;-84
2023/04/16 09:33:39;;;;;;;25.42;10.15;;;;;;;;;;5097545;28;20027;-84
2023/04/16 09:36:05;;;;;;;20.83;8.90;;;;;;;;;;5113525;28;20027;-84
2023/04/16 09:38:50;;;;;;;25.88;9.93;;;;;;;;;;5096218;28;20353;-85
2023/04/16 09:41:16;;;;;;;23.05;9.40;;;;;;;;;;5113300;28;20032;-84
2023/04/16 09:44:08;;;;;;;22.63;9.32;;;;;;;;;;5113269;28;20122;-87
2023/04/16 09:46:43;;;;;;;23.35;8.32;;;;;;;;;;5118293;28;20079;-84
2023/04/16 09:49:15;;;;;;;26.05;10.65;;;;;;;;;;5115628;28;20024;-84
2023/04/16 09:51:41;;;;;;;22.98;9.50;;;;;;;;;;5096477;28;20028;-85
2023/04/16 09:54:07;;;;;;;24.27;9.63;;;;;;;;;;5113156;28;20023;-84
2023/04/16 09:56:32;;;;;;;33.35;8.70;;;;;;;;;;5113381;28;20382;-87
2023/04/16 09:59:01;;;;;;;18.92;8.00;;;;;;;;;;5113525;28;20035;-85
2023/04/16 10:01:28;;;;;;;22.65;10.38;;;;;;;;;;5096682;28;20055;-87
2023/04/16 10:03:54;;;;;;;20.98;8.63;;;;;;;;;;5113032;28;20027;-86
2023/04/16 10:06:21;;;;;;;27.30;9.05;;;;;;;;;;5097077;28;20077;-84
2023/04/16 10:08:51;;;;;;;28.65;10.85;;;;;;;;;;5117213;28;20084;-86
2023/04/16 10:11:17;;;;;;;40.72;12.15;;;;;;;;;;5118112;28;20024;-84
2023/04/16 10:13:43;;;;;;;18.23;9.35;;;;;;;;;;5117176;28;20032;-85
2023/04/16 10:16:08;;;;;;;21.27;9.88;;;;;;;;;;5117296;28;20103;-86
2023/04/16 10:18:38;;;;;;;22.52;9.02;;;;;;;;;;5116589;28;20468;-85
2023/04/16 10:21:03;;;;;;;22.93;9.57;;;;;;;;;;5117019;28;20020;-84
2023/04/16 10:23:29;;;;;;;21.25;8.63;;;;;;;;;;5100291;28;20718;-85
2023/04/16 10:25:55;;;;;;;21.45;9.80;;;;;;;;;;5117310;28;20118;-85
2023/04/16 10:28:21;;;;;;;13.45;6.50;;;;;;;;;;5130576;28;20040;-85
2023/04/16 10:30:51;;;;;;;16.83;6.78;;;;;;;;;;5106360;28;20081;-85
2023/04/16 10:33:20;;;;;;;;;;;;;;;;;;5118516;28;20521;-84
2023/04/16 10:35:45;;;;;;;13.77;5.47;;;;;;;;;;5118459;27;19911;-87
2023/04/16 10:38:25;;;;;;;13.18;5.38;;;;;;;;;;5100563;28;20473;-86
2023/04/16 10:40:58;;;;;;;11.10;5.68;;;;;;;;;;5117576;28;20345;-87
2023/04/16 10:43:23;;;;;;;15.50;5.90;;;;;;;;;;5120529;28;20441;-85
2023/04/16 10:45:49;;;;;;;12.63;5.80;;;;;;;;;;5082512;28;20046;-88
2023/04/16 10:48:17;;;;;;;12.55;5.15;;;;;;;;;;5121257;28;20064;-85
2023/04/16 10:50:43;;;;;;;14.55;5.68;;;;;;;;;;5106754;28;20023;-86
2023/04/16 10:53:27;;;;;;;13.13;6.28;;;;;;;;;;5098964;28;20024;-86
2023/04/16 10:56:01;;;;;;;25.27;7.88;;;;;;;;;;5117642;28;20032;-85
2023/04/16 10:58:30;;;;;;;20.52;8.20;;;;;;;;;;5117334;28;20032;-85
2023/04/16 11:01:00;;;;;;;11.77;6.15;;;;;;;;;;5116134;28;20027;-87
2023/04/16 11:03:32;;;;;;;14.52;6.10;;;;;;;;;;5117527;28;20023;-87
2023/04/16 11:06:30;;;;;;;14.40;6.40;;;;;;;;;;5099164;28;20043;-85
2023/04/16 11:08:56;;;;;;;14.27;6.22;;;;;;;;;;5056530;28;20512;-87
2023/04/16 11:11:22;;;;;;;13.43;6.53;;;;;;;;;;5121852;28;20115;-85
2023/04/16 11:13:47;;;;;;;13.27;5.90;;;;;;;;;;5115797;28;20054;-85
2023/04/16 11:16:13;;;;;;;12.00;5.53;;;;;;;;;;5116872;28;20180;-87
2023/04/16 11:18:39;;;;;;;14.63;6.07;;;;;;;;;;5116916;28;20456;-87
2023/04/16 11:21:09;;;;;;;13.63;5.72;;;;;;;;;;5115073;28;20438;-85
2023/04/16 11:23:51;;;;;;;20.38;6.95;;;;;;;;;;5116998;28;20027;-86
2023/04/16 11:26:27;;;;;;;12.38;5.85;;;;;;;;;;5115432;28;20054;-88
2023/04/16 11:28:53;;;;;;;10.75;5.80;;;;;;;;;;5100175;28;20433;-85
2023/04/16 11:31:18;;;;;;;12.45;5.53;;;;;;;;;;5124466;28;20028;-86
2023/04/16 11:33:44;;;;;;;13.77;5.82;;;;;;;;;;5112198;28;20020;-85
2023/04/16 11:36:09;;;;;;;14.57;5.80;;;;;;;;;;5097871;28;20132;-86
2023/04/16 11:38:35;;;;;;;17.17;5.97;;;;;;;;;;5114754;28;20043;-86
2023/04/16 11:41:01;;;;;;;10.25;5.22;;;;;;;;;;5097884;28;20076;-85
2023/04/16 11:43:28;;;;;;;11.27;5.70;;;;;;;;;;5115967;28;20038;-85
2023/04/16 11:45:59;;;;;;;14.02;6.65;;;;;;;;;;5116079;28;20402;-86
2023/04/16 11:48:25;;;;;;;14.65;6.10;;;;;;;;;;5115621;28;20032;-87
2023/04/16 11:50:56;;;;;;;19.50;7.00;;;;;;;;;;5121566;28;20031;-83
2023/04/16 11:53:22;;;;;;;16.40;6.75;;;;;;;;;;5098392;28;20114;-85
2023/04/16 11:55:47;;;;;;;14.35;6.10;;;;;;;;;;5115067;28;20433;-85
2023/04/16 11:58:15;;;;;;;16.27;6.70;;;;;;;;;;5114556;28;20054;-86
2023/04/16 12:00:41;;;;;;;25.55;7.07;;;;;;;;;;5115788;28;20096;-87
2023/04/16 12:03:06;;;;;;;16.67;7.70;;;;;;;;;;5114708;28;20035;-85
2023/04/16 12:05:37;;;;;;;19.50;7.85;;;;;;;;;;5114227;28;20027;-86
2023/04/16 12:08:07;;;;;;;17.33;7.25;;;;;;;;;;5114972;28;20096;-86
2023/04/16 12:10:51;;;;;;;18.13;7.13;;;;;;;;;;5097521;28;20026;-87
2023/04/16 12:13:17;;;;;;;16.30;7.00;;;;;;;;;;5092180;28;20031;-86
2023/04/16 12:15:49;;;;;;;15.18;7.03;;;;;;;;;;5114680;28;20027;-87
2023/04/16 12:18:15;;;;;;;21.20;7.30;;;;;;;;;;5114612;28;20038;-85
2023/04/16 12:20:41;;;;;;;24.42;7.95;;;;;;;;;;5114245;28;20118;-87
2023/04/16 12:23:07;;;;;;;15.63;7.25;;;;;;;;;;5097448;28;20450;-84
2023/04/16 12:25:32;;;;;;;17.65;7.78;;;;;;;;;;5114346;28;20092;-86
2023/04/16 12:27:58;;;;;;;16.33;8.63;;;;;;;;;;5114087;28;20448;-85
2023/04/16 12:30:25;;;;;;;21.92;8.68;;;;;;;;;;5114393;28;20439;-85
2023/04/16 12:33:10;;;;;;;21.85;8.25;;;;;;;;;;5124258;28;20041;-84
2023/04/16 12:35:35;;;;;;;20.05;8.07;;;;;;;;;;5114976;28;20441;-85
2023/04/16 12:38:02;;;;;;;20.30;8.25;;;;;;;;;;5115556;28;20052;-85
2023/04/16 12:40:27;;;;;;;29.30;8.10;;;;;;;;;;5115479;28;20035;-85
2023/04/16 12:42:53;;;;;;;19.17;7.93;;;;;;;;;;5115156;28;20042;-86
2023/04/16 12:45:19;;;;;;;18.55;8.68;;;;;;;;;;5096778;28;20031;-85
2023/04/16 12:47:45;;;;;;;25.13;9.32;;;;;;;;;;5114375;28;20043;-86
2023/04/16 12:50:11;;;;;;;24.40;9.15;;;;;;;;;;5115562;28;20356;-86
2023/04/16 12:52:36;;;;;;;20.77;8.70;;;;;;;;;;5114664;28;20024;-85
2023/04/16 12:55:02;;;;;;;18.33;8.60;;;;;;;;;;5120962;28;20034;-85
2023/04/16 12:57:27;;;;;;;20.45;8.27;;;;;;;;;;5113519;28;20036;-85
2023/04/16 12:59:56;;;;;;;21.83;9.13;;;;;;;;;;5113516;28;20096;-86
2023/04/16 13:02:22;;;;;;;22.05;8.43;;;;;;;;;;5113620;28;20023;-85
2023/04/16 13:04:49;;;;;;;25.30;9.00;;;;;;;;;;5113610;28;20131;-86
2023/04/16 13:07:15;;;;;;;17.50;8.73;;;;;;;;;;5117290;28;20028;-85
2023/04/16 13:09:41;;;;;;;23.92;9.07;;;;;;;;;;5114915;28;20022;-85
2023/04/16 13:12:06;;;;;;;25.25;9.68;;;;;;;;;;5113486;28;20349;-86
2023/04/16 13:14:34;;;;;;;25.55;9.40;;;;;;;;;;5114793;28;20100;-85
2023/04/16 13:17:00;;;;;;;19.83;9.88;;;;;;;;;;5121548;28;20369;-83
2023/04/16 13:19:26;;;;;;;27.02;10.10;;;;;;;;;;5096904;28;20031;-86
2023/04/16 13:21:52;;;;;;;25.10;8.77;;;;;;;;;;5114436;28;20024;-85
2023/04/16 13:24:18;;;;;;;28.55;10.75;;;;;;;;;;5080384;28;20031;-86
2023/04/16 13:26:43;;;;;;;28.65;9.52;;;;;;;;;;5114828;28;20046;-85
2023/04/16 13:29:09;;;;;;;32.65;11.55;;;;;;;;;;5114770;28;20092;-85
2023/04/16 13:31:34;;;;;;;29.05;10.85;;;;;;;;;;5114769;28;20043;-85
2023/04/16 13:34:00;;;;;;;24.73;9.93;;;;;;;;;;5097235;28;20028;-85
2023/04/16 13:36:26;;;;;;;30.15;10.70;;;;;;;;;;5121336;28;20027;-86
2023/04/16 13:38:51;;;;;;;28.95;10.85;;;;;;;;;;5114480;28;20107;-85
2023/04/16 13:41:17;;;;;;;25.05;11.18;;;;;;;;;;5096320;28;20031;-85
2023/04/16 13:43:44;;;;;;;28.33;10.48;;;;;;;;;;5115531;28;20036;-85
2023/04/16 13:46:10;;;;;;;37.30;10.75;;;;;;;;;;5130960;28;20081;-85
2023/04/16 13:48:35;;;;;;;32.08;11.30;;;;;;;;;;5117369;28;20051;-86
2023/04/16 13:51:01;;;;;;;41.33;12.35;;;;;;;;;;5100638;28;20031;-86
2023/04/16 13:53:28;;;;;;;37.65;11.93;;;;;;;;;;5117636;28;20088;-85
2023/04/16 13:55:54;;;;;;;37.42;13.20;;;;;;;;;;5116856;28;20035;-85
2023/04/16 13:58:19;;;;;;;29.10;11.90;;;;;;;;;;5126514;28;20045;-85
2023/04/16 14:00:45;;;;;;;27.73;12.27;;;;;;;;;;5120042;28;20096;-85
2023/04/16 14:03:11;;;;;;;27.33;11.10;;;;;;;;;;5121477;28;20035;-86
2023/04/16 14:05:36;;;;;;;25.63;11.38;;;;;;;;;;5120970;28;20035;-85
2023/04/16 14:08:02;;;;;;;31.42;12.25;;;;;;;;;;5128143;28;20031;-85
2023/04/16 14:10:27;;;;;;;31.48;10.88;;;;;;;;;;5096120;28;20032;-85
2023/04/16 14:12:53;;;;;;;25.75;9.95;;;;;;;;;;5127838;27;20042;-86
2023/04/16 14:15:19;;;;;;;36.78;11.77;;;;;;;;;;5120804;28;20459;-85
2023/04/16 14:17:44;;;;;;;26.75;11.30;;;;;;;;;;5111724;28;20031;-85
2023/04/16 14:20:11;;;;;;;28.52;10.85;;;;;;;;;;5128198;28;20087;-85
2023/04/16 14:22:37;;;;;;;34.63;11.70;;;;;;;;;;5119511;28;20036;-85